Time;durP1;ratioP1;P1;durP2;ratioP2;P2;SDS_P1;SDS_P2;PMS_P1;PMS_P2;Temp;Humidity;BMP_temperature;BMP_pressure;BME280_temperature;BME280_humidity;BME280_pressure;Samples;Min_cycle;Max_cycle;Signal;HPM_P1;HPM_P2
2020/12/20 00:01:54;;;;;;;33.83;12.35;;;;;;;1.35;100.00;94080.41;6156039;23;20057;-92
2020/12/20 00:04:21;;;;;;;32.20;15.95;;;;;;;1.32;100.00;94087.34;6156048;23;20022;-91
2020/12/20 00:06:47;;;;;;;28.77;13.70;;;;;;;1.33;100.00;94088.13;6147881;23;20064;-91
2020/12/20 00:12:55;;;;;;;39.60;16.52;;;;;;;1.34;100.00;94082.13;6155999;23;20022;-91
2020/12/20 00:15:22;;;;;;;36.45;14.90;;;;;;;1.23;100.00;94075.44;6156045;23;20018;-91
2020/12/20 00:17:50;;;;;;;46.63;17.70;;;;;;;1.35;100.00;94093.06;6155844;23;20076;-91
2020/12/20 00:21:05;;;;;;;32.72;15.80;;;;;;;1.38;100.00;94086.00;6156760;23;20085;-91
2020/12/20 00:23:33;;;;;;;29.00;15.10;;;;;;;1.40;100.00;94086.69;6158708;23;20021;-92
2020/12/20 00:25:59;;;;;;;36.15;15.00;;;;;;;1.44;100.00;94094.81;6158301;23;20021;-92
2020/12/20 00:28:26;;;;;;;29.85;11.65;;;;;;;1.42;100.00;94091.59;6159286;23;20021;-92
2020/12/20 00:34:15;;;;;;;20.10;9.48;;;;;;;1.41;100.00;94087.47;6158115;23;20028;-92
2020/12/20 00:40:10;;;;;;;23.02;10.60;;;;;;;1.43;100.00;94090.69;6158074;23;20079;-91
2020/12/20 00:45:58;;;;;;;24.90;9.45;;;;;;;1.45;100.00;94081.22;6157893;23;20036;-92
2020/12/20 00:48:25;;;;;;;26.63;12.13;;;;;;;1.45;100.00;94091.34;6158061;23;20342;-92
2020/12/20 00:50:51;;;;;;;21.35;10.00;;;;;;;1.47;100.00;94086.94;6159190;23;20032;-92
2020/12/20 00:53:18;;;;;;;28.83;11.60;;;;;;;1.45;100.00;94083.75;6159522;23;20017;-92
2020/12/20 00:55:54;;;;;;;33.78;12.45;;;;;;;1.42;100.00;94073.88;6158183;23;20080;-92
2020/12/20 00:58:20;;;;;;;24.40;12.10;;;;;;;1.35;100.00;94065.22;6157531;23;20017;-92
2020/12/20 01:00:47;;;;;;;19.95;8.98;;;;;;;1.50;100.00;94078.28;6158811;23;20347;-92
2020/12/20 01:03:47;;;;;;;24.48;9.73;;;;;;;1.51;100.00;94074.81;6157626;23;20026;-91
2020/12/20 01:10:06;;;;;;;22.30;11.13;;;;;;;1.40;100.00;94063.09;6144160;23;20126;-92
2020/12/20 01:16:04;;;;;;;20.65;10.15;;;;;;;1.42;100.00;94064.56;6157687;23;20032;-91
2020/12/20 01:21:53;;;;;;;27.85;12.05;;;;;;;1.50;100.00;94070.69;6157675;23;20029;-92
2020/12/20 01:28:04;;;;;;;23.58;11.30;;;;;;;1.50;100.00;94070.69;6157620;23;20028;-92
2020/12/20 01:34:22;;;;;;;20.88;10.02;;;;;;;1.50;100.00;94061.38;6157097;23;20072;-92
2020/12/20 01:36:49;;;;;;;37.05;11.88;;;;;;;1.43;100.00;94058.56;6157116;23;20022;-92
2020/12/20 01:39:17;;;;;;;26.38;13.48;;;;;;;1.40;100.00;94068.97;6157625;23;20021;-92
2020/12/20 01:41:44;;;;;;;30.42;13.73;;;;;;;1.50;100.00;94068.16;6157529;23;20346;-91
2020/12/20 01:44:10;;;;;;;24.95;11.05;;;;;;;1.49;100.00;94064.03;6157490;23;20028;-91
2020/12/20 01:46:42;;;;;;;25.85;11.43;;;;;;;1.53;100.00;94071.22;6157183;23;20469;-92
2020/12/20 01:49:10;;;;;;;22.85;11.13;;;;;;;1.39;100.00;94069.88;6158568;23;20029;-91
2020/12/20 01:51:38;;;;;;;22.92;11.85;;;;;;;1.48;100.00;94067.50;6157041;23;20026;-92
2020/12/20 01:54:05;;;;;;;25.30;10.10;;;;;;;1.26;100.00;94064.28;6157147;23;20021;-92
2020/12/20 01:56:34;;;;;;;22.00;11.65;;;;;;;1.29;100.00;94062.28;6157099;23;20028;-92
2020/12/20 02:02:22;;;;;;;17.30;10.73;;;;;;;0.95;100.00;94076.97;6157376;23;20064;-92
2020/12/20 02:04:49;;;;;;;28.00;12.45;;;;;;;1.12;100.00;94065.44;6158122;23;20072;-92
2020/12/20 02:07:17;;;;;;;25.23;11.85;;;;;;;1.26;100.00;94061.75;6158093;23;20312;-92
2020/12/20 02:13:34;;;;;;;23.40;12.40;;;;;;;1.39;100.00;94064.03;6157244;23;20028;-91
2020/12/20 02:16:01;;;;;;;16.88;8.70;;;;;;;1.39;100.00;94059.75;6158407;23;20021;-91
2020/12/20 02:18:27;;;;;;;27.60;11.02;;;;;;;1.43;100.00;94067.91;6157723;23;20026;-91
2020/12/20 02:24:55;;;;;;;22.10;9.63;;;;;;;1.36;100.00;94061.75;6157059;23;20025;-92
2020/12/20 02:30:52;;;;;;;30.50;11.57;;;;;;;1.41;100.00;94052.84;6157030;23;20023;-92
2020/12/20 02:36:41;;;;;;;23.98;9.60;;;;;;;1.49;100.00;94059.78;6156931;23;20025;-92
2020/12/20 02:39:08;;;;;;;28.85;11.85;;;;;;;1.47;100.00;94048.97;6156750;23;20029;-92
2020/12/20 02:41:36;;;;;;;20.85;8.55;;;;;;;1.53;100.00;94055.25;6157129;23;20021;-92
2020/12/20 02:44:34;;;;;;;26.13;10.75;;;;;;;1.58;100.00;94058.97;6157605;23;20474;-92
2020/12/20 02:50:29;;;;;;;18.58;9.38;;;;;;;1.60;100.00;94059.66;6156854;23;20084;-92
2020/12/20 02:56:50;;;;;;;23.63;10.00;;;;;;;1.63;100.00;94063.66;6156873;23;20102;-92
2020/12/20 03:02:56;;;;;;;22.13;9.63;;;;;;;1.55;100.00;94059.25;6156715;23;20072;-92
2020/12/20 03:12:52;;;;;;;22.15;9.05;;;;;;;1.56;100.00;94048.16;6158636;23;20076;-92
2020/12/20 03:15:20;;;;;;;27.52;9.95;;;;;;;1.51;100.00;94044.44;6159933;23;20021;-92
2020/12/20 03:17:46;;;;;;;17.63;8.98;;;;;;;1.51;100.00;94039.34;6157896;23;20339;-91
2020/12/20 03:20:13;;;;;;;26.75;9.98;;;;;;;1.56;100.00;94045.63;6156334;23;20450;-92
2020/12/20 03:22:39;;;;;;;18.02;8.45;;;;;;;1.59;100.00;94044.56;6157752;23;20386;-92
2020/12/20 03:25:06;;;;;;;23.95;9.85;;;;;;;1.63;100.00;94057.75;6156278;23;20028;-92
2020/12/20 03:27:32;;;;;;;25.25;10.90;;;;;;;1.64;100.00;94042.44;6156207;23;20025;-93
2020/12/20 03:29:59;;;;;;;29.38;11.88;;;;;;;1.67;100.00;94043.91;6157317;23;20022;-92
2020/12/20 03:32:32;;;;;;;28.60;11.50;;;;;;;1.60;100.00;94039.38;6156538;23;20021;-92
2020/12/20 03:38:33;;;;;;;25.88;10.77;;;;;;;1.70;100.00;94051.22;6156420;23;20020;-92
2020/12/20 03:40:59;;;;;;;34.53;10.68;;;;;;;1.65;100.00;94044.03;6156547;23;20017;-92
2020/12/20 03:43:26;;;;;;;16.00;7.60;;;;;;;1.53;100.00;94045.88;6156213;23;20022;-92
2020/12/20 03:45:52;;;;;;;24.88;8.57;;;;;;;1.57;100.00;94056.59;6157050;23;20021;-92
2020/12/20 03:48:20;;;;;;;21.60;8.20;;;;;;;1.63;100.00;94045.91;6156178;23;20021;-92
2020/12/20 03:54:44;;;;;;;21.17;8.82;;;;;;;1.70;100.00;94044.44;6155708;23;20457;-93
2020/12/20 04:00:37;;;;;;;19.33;8.63;;;;;;;1.40;100.00;94009.94;6156555;23;20076;-94
2020/12/20 04:06:27;;;;;;;27.50;12.18;;;;;;;1.57;100.00;94047.22;6156292;23;20559;-92
2020/12/20 04:12:34;;;;;;;19.90;9.95;;;;;;;1.44;100.00;94055.09;6145017;23;20029;-92
2020/12/20 04:19:17;;;;;;;17.77;8.10;;;;;;;1.63;100.00;94050.16;6156169;23;20447;-91
2020/12/20 04:25:41;;;;;;;19.98;9.35;;;;;;;1.44;100.00;94059.38;6156324;23;20069;-92
2020/12/20 04:28:07;;;;;;;13.93;8.15;;;;;;;1.36;100.00;94041.50;6157311;23;20024;-92
2020/12/20 04:30:34;;;;;;;20.67;10.55;;;;;;;1.37;100.00;94046.44;6156206;23;20028;-92
2020/12/20 04:33:11;;;;;;;24.60;8.60;;;;;;;1.55;100.00;94056.72;6157241;23;20029;-92
2020/12/20 04:39:13;;;;;;;24.20;9.80;;;;;;;1.65;100.00;94055.88;6156886;23;20093;-92
2020/12/20 04:45:20;;;;;;;26.55;11.25;;;;;;;1.68;100.00;94051.38;6156154;23;20142;-91
2020/12/20 04:51:36;;;;;;;23.52;10.05;;;;;;;1.69;100.00;94052.16;6156083;23;20024;-92
2020/12/20 04:57:24;;;;;;;36.60;12.63;;;;;;;1.75;100.00;94056.69;6155942;23;20447;-91
2020/12/20 05:03:35;;;;;;;14.40;8.02;;;;;;;1.59;100.00;94057.25;6156131;23;20027;-92
2020/12/20 05:09:30;;;;;;;21.60;9.43;;;;;;;1.68;100.00;94063.22;6156591;23;20024;-92
2020/12/20 05:19:42;;;;;;;11.45;6.25;;;;;;;1.75;100.00;94066.81;6157936;23;20076;-92
2020/12/20 05:22:15;;;;;;;18.83;8.40;;;;;;;1.75;100.00;94063.50;6157538;23;20072;-91
2020/12/20 05:24:47;;;;;;;18.30;8.77;;;;;;;1.72;100.00;94064.56;6157781;23;20021;-92
2020/12/20 05:27:23;;;;;;;16.73;8.57;;;;;;;1.80;100.00;94072.28;6158662;23;20033;-91
2020/12/20 05:29:51;;;;;;;17.48;6.55;;;;;;;1.77;100.00;94067.50;6157894;23;20028;-92
2020/12/20 05:32:31;;;;;;;20.13;7.13;;;;;;;1.83;100.00;94078.81;6157316;23;20017;-92
2020/12/20 05:38:33;;;;;;;19.92;8.80;;;;;;;1.73;100.00;94092.28;6157433;23;20458;-91
2020/12/20 05:44:45;;;;;;;19.85;5.32;;;;;;;1.40;100.00;94096.81;6157522;23;20068;-91
2020/12/20 05:50:53;;;;;;;11.55;7.35;;;;;;;0.92;100.00;94103.31;6157469;23;20028;-91
2020/12/20 05:57:31;;;;;;;18.35;7.93;;;;;;;1.32;100.00;94102.53;6157401;23;20092;-92
2020/12/20 06:07:40;;;;;;;13.75;6.30;;;;;;;1.56;100.00;94105.59;6157072;23;20053;-91
2020/12/20 06:13:37;;;;;;;13.93;6.97;;;;;;;1.57;100.00;94107.22;6158387;23;20029;-92
2020/12/20 06:27:41;;;;;;;10.70;5.70;;;;;;;1.53;100.00;94099.06;6157137;23;20355;-92
2020/12/20 06:30:08;;;;;;;23.17;7.18;;;;;;;1.45;100.00;94083.75;6157724;23;20057;-92
2020/12/20 06:32:57;;;;;;;22.20;7.82;;;;;;;1.59;100.00;94095.22;6157221;23;20021;-91
2020/12/20 06:35:25;;;;;;;23.98;7.90;;;;;;;1.67;100.00;94109.75;6154500;23;20108;-93
2020/12/20 06:37:52;;;;;;;17.48;8.60;;;;;;;1.78;100.00;94111.34;6156647;23;20072;-92
2020/12/20 06:43:31;;;;;;;19.23;9.15;;;;;;;1.89;100.00;94118.03;6133258;23;20104;-92
2020/12/20 06:49:39;;;;;;;22.05;9.25;;;;;;;1.96;100.00;94112.31;6157009;23;20024;-92
2020/12/20 06:55:32;;;;;;;24.90;9.82;;;;;;;1.94;100.00;94110.84;6157548;23;20028;-92
2020/12/20 06:58:33;;;;;;;23.75;7.65;;;;;;;2.05;100.00;94125.09;6158445;23;20044;-92
2020/12/20 07:01:00;;;;;;;18.00;7.05;;;;;;;1.86;100.00;94104.69;6156446;23;20022;-89
2020/12/20 07:09:42;;;;;;;15.00;8.20;;;;;;;1.77;100.00;94119.88;6066477;23;20030;-92
2020/12/20 07:12:32;;;;;;;18.35;8.27;;;;;;;1.84;100.00;94109.09;6150497;23;20025;-92
2020/12/20 07:14:58;;;;;;;20.63;7.80;;;;;;;1.96;100.00;94119.09;6157523;23;20025;-91
2020/12/20 07:17:25;;;;;;;21.55;8.95;;;;;;;1.99;100.00;94114.56;6159555;23;20021;-91
2020/12/20 07:23:19;;;;;;;20.50;7.35;;;;;;;2.07;100.00;94118.97;6097741;23;20112;-91
2020/12/20 07:25:47;;;;;;;;;;;;;;;2.12;100.00;94121.88;6098195;23;20344;-92
2020/12/20 07:28:13;;;;;;;16.27;8.93;;;;;;;2.04;100.00;94118.44;6098359;23;19921;-91
2020/12/20 07:30:39;;;;;;;;;;;;;;;1.82;100.00;94122.81;6098169;23;20030;-93
2020/12/20 07:33:05;;;;;;;23.52;9.45;;;;;;;1.54;100.00;94128.53;6095907;23;19917;-93
2020/12/20 07:35:31;;;;;;;;;;;;;;;1.65;100.00;94124.28;6097301;23;20515;-93
2020/12/20 07:37:58;;;;;;;20.77;10.65;;;;;;;1.74;100.00;94120.97;6096117;23;19917;-92
2020/12/20 07:40:24;;;;;;;35.00;11.70;;;;;;;1.85;100.00;94120.81;6095790;23;20329;-94
2020/12/20 07:43:01;;;;;;;22.30;8.80;;;;;;;1.89;100.00;94123.88;6095773;23;20023;-93
2020/12/20 07:45:27;;;;;;;25.40;10.85;;;;;;;2.07;100.00;94113.88;6096186;23;20463;-92
2020/12/20 07:47:53;;;;;;;;;;;;;;;1.99;100.00;94126.44;6097982;23;20023;-92
2020/12/20 07:50:22;;;;;;;31.90;12.60;;;;;;;1.95;100.00;94117.50;6097074;23;19940;-92
2020/12/20 07:52:48;;;;;;;26.48;11.43;;;;;;;2.17;100.00;94128.28;6096533;23;20018;-92
2020/12/20 07:55:15;;;;;;;16.17;11.13;;;;;;;2.21;100.00;94125.34;6097435;23;20029;-93
2020/12/20 07:57:44;;;;;;;;;;;;;;;2.27;100.00;94126.56;6096245;23;20580;-92
2020/12/20 08:00:12;;;;;;;24.90;11.38;;;;;;;2.18;100.00;94115.47;6096144;23;19924;-93
2020/12/20 08:02:39;;;;;;;27.35;11.60;;;;;;;2.19;100.00;94108.66;6096382;23;20321;-93
2020/12/20 08:05:05;;;;;;;34.38;12.27;;;;;;;2.36;100.00;94128.25;6095850;23;20019;-93
2020/12/20 08:07:32;;;;;;;24.45;10.18;;;;;;;2.37;100.00;94132.38;6095478;23;20086;-93
2020/12/20 08:09:58;;;;;;;;;;;;;;;2.25;100.00;94129.22;6096447;23;20019;-93
2020/12/20 08:12:24;;;;;;;21.27;10.38;;;;;;;2.15;100.00;94123.34;6096456;23;19917;-93
2020/12/20 08:15:01;;;;;;;18.98;10.07;;;;;;;2.15;100.00;94123.34;6096387;23;20023;-92
2020/12/20 08:17:28;;;;;;;30.17;10.30;;;;;;;2.12;100.00;94116.00;6095896;23;20031;-92
2020/12/20 08:20:01;;;;;;;28.38;13.30;;;;;;;1.98;100.00;94130.69;6096083;23;20483;-92
2020/12/20 08:22:44;;;;;;;25.67;13.13;;;;;;;2.08;100.00;94118.00;6140232;23;20025;-92
2020/12/20 08:25:11;;;;;;;32.97;11.85;;;;;;;2.28;100.00;94128.16;6156124;23;20033;-92
2020/12/20 08:27:42;;;;;;;31.33;13.63;;;;;;;2.40;100.00;94119.44;6155877;23;20485;-92
2020/12/20 08:30:11;;;;;;;23.63;12.77;;;;;;;2.36;100.00;94123.19;6157406;23;20396;-92
2020/12/20 08:32:40;;;;;;;20.80;10.43;;;;;;;1.95;100.00;94120.03;6155955;23;20018;-93
2020/12/20 08:35:12;;;;;;;25.45;9.48;;;;;;;1.58;100.00;94104.53;6155174;23;20056;-92
2020/12/20 08:37:38;;;;;;;39.63;14.70;;;;;;;1.81;100.00;94108.56;6154262;23;20028;-91
2020/12/20 08:40:12;;;;;;;29.92;13.63;;;;;;;1.89;100.00;94108.69;6154839;23;20022;-92
2020/12/20 08:42:38;;;;;;;32.42;13.82;;;;;;;2.08;100.00;94112.16;6156465;23;20017;-91
2020/12/20 08:45:13;;;;;;;24.80;13.10;;;;;;;2.23;100.00;94110.78;6156350;23;20079;-91
2020/12/20 08:47:40;;;;;;;25.75;10.75;;;;;;;2.17;100.00;94095.34;6156432;23;20497;-93
2020/12/20 08:50:07;;;;;;;25.77;11.55;;;;;;;2.25;100.00;94118.25;6156295;23;20021;-92
2020/12/20 08:52:33;;;;;;;29.15;11.20;;;;;;;2.40;100.00;94113.56;6157408;23;20032;-92
2020/12/20 08:55:00;;;;;;;;;;;;;;;2.59;100.00;94111.94;6157472;23;20029;-92
2020/12/20 08:57:27;;;;;;;26.13;10.73;;;;;;;2.63;100.00;94115.78;6156886;23;20337;-92
2020/12/20 08:59:54;;;;;;;16.40;7.50;;;;;;;2.49;100.00;94101.78;6156773;23;20053;-92
2020/12/20 09:02:23;;;;;;;22.75;8.10;;;;;;;2.44;100.00;94089.53;6156464;23;20022;-93
2020/12/20 09:04:58;;;;;;;17.05;9.82;;;;;;;2.59;100.00;94107.66;6157958;23;20018;-92
2020/12/20 09:07:31;;;;;;;23.58;10.68;;;;;;;2.75;100.00;94102.00;6156788;23;20387;-93
2020/12/20 09:10:05;;;;;;;20.90;9.77;;;;;;;2.65;100.00;94079.19;6157489;23;20451;-92
2020/12/20 09:12:32;;;;;;;21.10;9.85;;;;;;;2.85;100.00;94106.22;6157508;23;20024;-92
2020/12/20 09:14:59;;;;;;;;;;;;;;;3.02;100.00;94110.56;6158533;23;20343;-91
2020/12/20 09:17:30;;;;;;;19.50;10.25;;;;;;;3.02;100.00;94092.78;6157623;23;20322;-91
2020/12/20 09:19:57;;;;;;;25.05;10.88;;;;;;;3.15;100.00;94105.16;6156834;23;20026;-92
2020/12/20 09:25:59;;;;;;;20.92;8.68;;;;;;;3.27;99.58;94102.44;6157604;23;20083;-91
2020/12/20 09:28:27;;;;;;;15.88;8.52;;;;;;;3.37;99.73;94100.63;6157763;23;20021;-91
2020/12/20 09:30:54;;;;;;;18.70;8.02;;;;;;;3.43;99.39;94094.19;6157494;23;20033;-91
2020/12/20 09:33:23;;;;;;;15.48;8.45;;;;;;;3.52;99.12;94088.22;6157358;23;20018;-92
2020/12/20 09:35:59;;;;;;;16.20;6.40;;;;;;;3.56;98.40;94094.63;6157825;23;20028;-92
2020/12/20 09:38:28;;;;;;;24.30;9.48;;;;;;;3.60;98.14;94095.13;6157414;23;20017;-92
2020/12/20 09:41:00;;;;;;;25.35;8.32;;;;;;;3.67;98.15;94095.38;6157600;23;20025;-91
2020/12/20 09:43:26;;;;;;;20.92;9.75;;;;;;;3.76;98.42;94091.16;6157421;23;20021;-91
2020/12/20 09:45:52;;;;;;;;;;;;;;;3.81;97.82;94089.78;6157974;23;20017;-91
2020/12/20 09:48:19;;;;;;;23.58;9.70;;;;;;;3.54;97.97;94068.59;6157038;23;19917;-91
2020/12/20 09:51:15;;;;;;;18.27;8.98;;;;;;;3.71;97.96;94082.22;6157295;23;20021;-94
2020/12/20 09:53:41;;;;;;;23.48;8.48;;;;;;;3.79;98.49;94078.94;6156664;23;20046;-92
2020/12/20 09:56:08;;;;;;;40.05;18.55;;;;;;;3.88;97.88;94067.91;6154866;23;20017;-92
2020/12/20 09:58:34;;;;;;;;;;;;;;;3.90;96.62;94064.44;6157691;23;20021;-93
2020/12/20 10:01:01;;;;;;;21.30;11.32;;;;;;;3.91;98.18;94069.38;6155001;23;19916;-93
2020/12/20 10:03:28;;;;;;;23.67;9.93;;;;;;;4.01;97.64;94067.53;6155516;23;20028;-93
2020/12/20 10:05:57;;;;;;;24.17;10.90;;;;;;;4.07;98.12;94063.59;6155333;23;20022;-93
2020/12/20 10:08:25;;;;;;;26.48;12.70;;;;;;;4.17;98.29;94060.94;6155409;23;20022;-94
2020/12/20 10:10:53;;;;;;;25.05;10.25;;;;;;;4.17;97.46;94057.63;6155392;23;20017;-92
2020/12/20 10:13:19;;;;;;;14.50;9.15;;;;;;;4.31;97.88;94057.09;6155640;23;20320;-93
2020/12/20 10:15:45;;;;;;;;;;;;;;;4.24;97.02;94059.44;6154879;23;20026;-93
2020/12/20 10:18:12;;;;;;;16.67;8.45;;;;;;;4.14;97.00;94048.56;6154832;23;19917;-94
2020/12/20 10:20:38;;;;;;;32.15;11.52;;;;;;;4.26;97.89;94059.28;6154999;23;20021;-93
2020/12/20 10:23:04;;;;;;;;;;;;;;;4.23;97.45;94064.66;6155471;23;20022;-93
2020/12/20 10:25:31;;;;;;;21.40;10.60;;;;;;;4.20;97.72;94055.59;6155271;23;19916;-94
2020/12/20 10:27:58;;;;;;;19.17;9.32;;;;;;;4.20;98.04;94054.78;6159042;23;20021;-93
2020/12/20 10:30:24;;;;;;;;;;;;;;;4.18;97.81;94056.69;6155922;23;20040;-92
2020/12/20 10:32:51;;;;;;;18.13;7.97;;;;;;;3.99;98.44;94040.66;6154671;23;19931;-93
2020/12/20 10:35:17;;;;;;;38.63;11.07;;;;;;;3.97;97.79;94050.97;6154934;23;20068;-93
2020/12/20 10:37:44;;;;;;;16.35;10.05;;;;;;;3.90;98.81;94039.81;6155140;23;20028;-92
2020/12/20 10:40:11;;;;;;;25.38;11.55;;;;;;;4.01;98.79;94044.66;6155293;23;20018;-93
2020/12/20 10:42:38;;;;;;;19.73;9.02;;;;;;;4.20;99.09;94050.50;6154838;23;20324;-93
2020/12/20 10:45:05;;;;;;;22.25;9.05;;;;;;;4.17;99.79;94040.59;6154978;23;20114;-92
2020/12/20 10:47:31;;;;;;;29.65;11.43;;;;;;;4.30;98.79;94031.81;6155107;23;20028;-92
2020/12/20 10:49:57;;;;;;;;;;;;;;;4.22;98.85;94043.50;6155357;23;20021;-92
2020/12/20 10:52:23;;;;;;;22.17;10.18;;;;;;;4.33;98.28;94045.00;6155616;23;19946;-93
2020/12/20 10:54:49;;;;;;;49.53;22.25;;;;;;;4.38;98.01;94040.28;6156342;23;20080;-92
2020/12/20 10:57:16;;;;;;;25.17;11.90;;;;;;;4.37;98.04;94040.44;6155926;23;20109;-94
2020/12/20 10:59:43;;;;;;;25.15;10.40;;;;;;;4.26;97.66;94036.41;6155293;23;20032;-92
2020/12/20 11:02:09;;;;;;;18.77;9.07;;;;;;;4.45;98.11;94037.13;6155211;23;20022;-92
2020/12/20 11:04:35;;;;;;;23.85;12.05;;;;;;;4.53;98.45;94030.34;6154952;23;20466;-92
2020/12/20 11:07:02;;;;;;;22.65;10.75;;;;;;;4.55;97.78;94020.78;6156390;23;20387;-93
2020/12/20 11:09:29;;;;;;;24.05;9.38;;;;;;;4.60;98.01;94020.34;6156267;23;20017;-92
2020/12/20 11:11:55;;;;;;;;;;;;;;;4.63;96.69;94021.78;6155881;23;20028;-92
2020/12/20 11:14:22;;;;;;;23.25;10.80;;;;;;;4.70;96.44;94024.50;6156651;23;19963;-92
2020/12/20 11:16:50;;;;;;;16.52;8.90;;;;;;;4.74;97.28;94021.53;6156487;23;20024;-91
2020/12/20 11:19:16;;;;;;;34.83;11.60;;;;;;;4.89;95.85;94021.72;6155702;23;20053;-91
2020/12/20 11:21:46;;;;;;;;;;;;;;;4.93;95.85;94023.03;6156963;23;20101;-91
2020/12/20 11:24:13;;;;;;;42.15;18.73;;;;;;;4.72;95.71;94003.03;6156711;23;20296;-91
2020/12/20 11:26:42;;;;;;;30.45;12.68;;;;;;;4.85;96.13;94015.34;6156547;23;20017;-91
2020/12/20 11:29:09;;;;;;;17.45;8.25;;;;;;;4.75;95.50;94018.03;6157662;23;20108;-91
2020/12/20 11:31:35;;;;;;;23.73;9.63;;;;;;;4.92;94.89;94020.63;6157288;23;20018;-91
2020/12/20 11:34:02;;;;;;;;;;;;;;;4.95;94.68;94022.84;6156981;23;20025;-92
2020/12/20 11:36:29;;;;;;;23.67;8.23;;;;;;;4.77;95.35;93998.28;6157670;23;19917;-91
2020/12/20 11:38:55;;;;;;;18.20;10.15;;;;;;;4.93;95.26;94020.47;6156662;23;20048;-92
2020/12/20 11:41:54;;;;;;;;;;;;;;;4.76;96.37;94021.34;6156849;23;20021;-91
2020/12/20 11:44:22;;;;;;;24.15;10.20;;;;;;;4.58;96.75;94027.31;6157705;23;19916;-91
2020/12/20 11:46:49;;;;;;;13.70;7.32;;;;;;;4.56;97.56;94021.59;6155967;23;20028;-91
2020/12/20 11:49:16;;;;;;;;;;;;;;;4.54;97.37;94023.50;6156679;23;20021;-91
2020/12/20 11:51:43;;;;;;;18.95;8.90;;;;;;;4.65;98.21;94024.97;6156172;23;19971;-91
2020/12/20 11:54:10;;;;;;;18.45;9.50;;;;;;;4.77;97.52;94031.38;6157325;23;20021;-91
2020/12/20 11:56:36;;;;;;;;;;;;;;;4.92;98.00;94023.94;6157087;23;20509;-92
2020/12/20 11:59:02;;;;;;;23.42;10.48;;;;;;;4.76;96.33;94021.34;6156492;23;20237;-91
2020/12/20 12:01:30;;;;;;;21.52;10.23;;;;;;;4.80;96.32;94010.72;6156537;23;20023;-91
2020/12/20 12:03:56;;;;;;;26.00;11.63;;;;;;;4.88;95.60;94015.06;6157572;23;20375;-91
2020/12/20 12:09:45;;;;;;;21.52;9.00;;;;;;;4.85;94.94;94009.47;6156131;23;20028;-90
2020/12/20 12:12:11;;;;;;;24.00;8.50;;;;;;;4.84;95.16;94006.13;6157533;23;20017;-91
2020/12/20 12:15:02;;;;;;;;;;;;;;;4.87;94.72;94007.56;6156571;23;20450;-90
2020/12/20 12:17:28;;;;;;;21.25;9.20;;;;;;;4.74;95.14;94013.09;6157455;23;19923;-90
2020/12/20 12:19:55;;;;;;;;;;;;;;;4.74;95.59;94005.44;6159904;23;20021;-90
2020/12/20 12:26:51;;;;;;;21.48;11.18;;;;;;;4.34;97.75;94010.19;6158244;23;20088;-90
2020/12/20 12:36:28;;;;;;;19.50;9.63;;;;;;;4.13;98.22;94011.38;6157342;23;20021;-90
2020/12/20 12:38:59;;;;;;;23.35;10.75;;;;;;;4.08;99.10;94001.63;6158471;23;20477;-89
2020/12/20 12:42:03;;;;;;;19.33;9.18;;;;;;;4.08;98.93;94011.78;6159166;23;20025;-89
2020/12/20 12:44:30;;;;;;;22.00;9.95;;;;;;;3.99;98.84;94010.94;6158249;23;20029;-89
2020/12/20 12:46:56;;;;;;;;;;;;;;;3.96;99.05;94013.00;6158300;23;20021;-89
2020/12/20 12:49:25;;;;;;;23.95;10.57;;;;;;;3.67;99.48;93994.53;6157837;23;19924;-88
2020/12/20 12:51:52;;;;;;;24.70;9.95;;;;;;;3.71;99.71;94013.59;6157620;23;20028;-90
2020/12/20 12:54:19;;;;;;;15.48;8.15;;;;;;;3.52;100.00;94009.47;6158819;23;20017;-90
2020/12/20 12:57:45;;;;;;;15.73;8.95;;;;;;;3.48;100.00;94010.75;6159907;23;20018;-89
2020/12/20 13:00:11;;;;;;;16.88;8.77;;;;;;;3.26;100.00;94007.69;6157393;23;20018;-89
2020/12/20 13:02:37;;;;;;;;;;;;;;;3.23;100.00;94012.25;6158288;23;20022;-89
2020/12/20 13:05:07;;;;;;;19.05;8.85;;;;;;;3.20;100.00;94020.97;6161631;23;19923;-89
2020/12/20 13:07:34;;;;;;;21.40;11.32;;;;;;;3.02;100.00;94019.19;6163038;23;20025;-89
2020/12/20 13:10:00;;;;;;;15.25;8.15;;;;;;;3.00;100.00;94021.06;6158812;23;20018;-89
2020/12/20 13:12:27;;;;;;;18.10;8.65;;;;;;;2.92;100.00;94018.47;6157855;23;20076;-89
2020/12/20 13:14:53;;;;;;;;;;;;;;;3.01;100.00;94021.88;6160161;23;20076;-90
2020/12/20 13:17:20;;;;;;;16.05;9.23;;;;;;;2.91;100.00;94017.66;6157883;23;19916;-90
2020/12/20 13:20:28;;;;;;;23.33;9.45;;;;;;;3.02;100.00;94018.41;6157518;23;20025;-89
2020/12/20 13:22:55;;;;;;;17.58;9.68;;;;;;;2.91;100.00;94019.38;6157148;23;20478;-90
2020/12/20 13:25:22;;;;;;;20.90;11.27;;;;;;;3.02;100.00;94020.94;6158956;23;20018;-90
2020/12/20 13:28:04;;;;;;;;;;;;;;;3.08;100.00;94015.28;6157875;23;20022;-90
2020/12/20 13:33:58;;;;;;;25.98;13.27;;;;;;;2.93;100.00;94033.53;6157611;23;20518;-89
2020/12/20 13:36:25;;;;;;;22.13;11.80;;;;;;;2.61;100.00;93986.56;6157982;23;20021;-89
2020/12/20 13:38:54;;;;;;;49.70;20.75;;;;;;;2.82;100.00;94022.78;6158788;23;20022;-89
2020/12/20 13:41:20;;;;;;;16.95;9.90;;;;;;;2.75;100.00;94028.44;6158138;23;20018;-89
2020/12/20 13:43:48;;;;;;;15.77;10.02;;;;;;;2.68;100.00;94024.84;6156900;23;20014;-89
2020/12/20 13:46:15;;;;;;;16.50;8.77;;;;;;;2.59;100.00;94018.88;6158208;23;20021;-89
2020/12/20 13:48:41;;;;;;;19.20;9.48;;;;;;;2.62;100.00;94031.28;6157198;23;20053;-89
2020/12/20 13:51:08;;;;;;;33.05;16.05;;;;;;;2.39;100.00;94010.53;6157219;23;20021;-89
2020/12/20 13:53:35;;;;;;;33.28;16.95;;;;;;;2.55;100.00;94030.25;6158633;23;20026;-89
2020/12/20 13:56:26;;;;;;;27.27;14.32;;;;;;;2.63;100.00;94040.47;6158513;23;20017;-90
2020/12/20 13:59:24;;;;;;;20.60;11.15;;;;;;;2.52;100.00;94036.41;6157608;23;20312;-89
2020/12/20 14:01:51;;;;;;;25.52;12.88;;;;;;;2.36;100.00;94042.03;6157226;23;20022;-90
2020/12/20 14:04:17;;;;;;;20.85;12.70;;;;;;;2.25;100.00;94048.09;6157231;23;20021;-88
2020/12/20 14:06:43;;;;;;;36.67;19.10;;;;;;;2.29;100.00;94042.72;6157134;23;20052;-89
2020/12/20 14:09:13;;;;;;;25.83;12.98;;;;;;;2.35;100.00;94044.72;6158461;23;20052;-89
2020/12/20 14:11:40;;;;;;;21.00;11.30;;;;;;;2.23;100.00;94044.09;6157256;23;20053;-90
2020/12/20 14:14:06;;;;;;;25.58;10.77;;;;;;;2.13;100.00;94041.59;6157784;23;20017;-87
2020/12/20 14:16:33;;;;;;;;;;;;;;;2.18;100.00;94044.50;6157020;23;20018;-87
2020/12/20 14:18:59;;;;;;;22.98;11.20;;;;;;;2.20;100.00;94045.16;6156635;23;19921;-87
2020/12/20 14:21:25;;;;;;;21.75;10.30;;;;;;;2.19;100.00;94041.03;6156297;23;20067;-87
2020/12/20 14:23:52;;;;;;;21.63;13.02;;;;;;;2.16;100.00;94045.59;6155261;23;20022;-89
2020/12/20 14:26:19;;;;;;;18.40;11.15;;;;;;;2.06;100.00;94033.72;6155769;23;20018;-88
2020/12/20 14:28:47;;;;;;;17.15;9.43;;;;;;;2.02;100.00;94050.13;6156591;23;20025;-87
2020/12/20 14:31:14;;;;;;;19.63;12.15;;;;;;;2.08;100.00;94049.59;6156609;23;20049;-88
2020/12/20 14:33:40;;;;;;;26.42;13.13;;;;;;;2.09;100.00;94050.41;6156087;23;20342;-87
2020/12/20 14:36:37;;;;;;;24.05;10.68;;;;;;;1.98;100.00;94058.94;6157279;23;20017;-87
2020/12/20 14:39:04;;;;;;;21.27;10.10;;;;;;;1.99;100.00;94058.81;6156250;23;20029;-88
2020/12/20 14:41:30;;;;;;;18.30;9.77;;;;;;;1.98;100.00;94058.94;6156093;23;20021;-88
2020/12/20 14:43:57;;;;;;;21.50;11.18;;;;;;;1.94;100.00;94045.75;6155390;23;20017;-88
2020/12/20 14:46:24;;;;;;;23.38;11.18;;;;;;;2.04;100.00;94053.31;6156849;23;20085;-89
2020/12/20 14:48:50;;;;;;;21.70;12.70;;;;;;;1.93;100.00;94056.00;6156766;23;20017;-88
2020/12/20 14:51:20;;;;;;;;;;;;;;;1.97;100.00;94055.63;6158414;23;20079;-89
2020/12/20 14:53:48;;;;;;;23.48;12.43;;;;;;;1.93;100.00;94053.47;6156864;23;20318;-88
2020/12/20 14:56:15;;;;;;;24.38;12.20;;;;;;;1.95;100.00;94059.22;6157257;23;20462;-88
2020/12/20 14:58:42;;;;;;;23.67;11.38;;;;;;;1.95;100.00;94061.75;6156869;23;20021;-88
2020/12/20 15:01:11;;;;;;;18.42;10.55;;;;;;;1.86;100.00;94059.06;6158324;23;20022;-88
2020/12/20 15:04:21;;;;;;;30.02;13.77;;;;;;;1.82;100.00;94057.78;6160242;23;20024;-88
2020/12/20 15:06:50;;;;;;;28.58;12.95;;;;;;;1.76;100.00;94058.28;6158765;23;20426;-88